sensor_id;sensor_type;location;lat;lon;timestamp;pressure;altitude;pressure_sealevel;temperature;humidity
77118;BME280;66072;50.238;19.228;2024-03-25T00:02:13;97133.46;;;3.06;84.31
77118;BME280;66072;50.238;19.228;2024-03-25T00:04:40;97130.09;;;3.05;84.99
77118;BME280;66072;50.238;19.228;2024-03-25T00:07:08;97132.63;;;3.05;85.14
77118;BME280;66072;50.238;19.228;2024-03-25T00:09:35;97129.76;;;3.05;85.78
77118;BME280;66072;50.238;19.228;2024-03-25T00:12:03;97132.25;;;3.07;85.65
77118;BME280;66072;50.238;19.228;2024-03-25T00:14:30;97128.70;;;3.07;85.97
77118;BME280;66072;50.238;19.228;2024-03-25T00:16:58;97126.52;;;3.06;86.02
77118;BME280;66072;50.238;19.228;2024-03-25T00:19:25;97126.50;;;3.07;86.12
77118;BME280;66072;50.238;19.228;2024-03-25T00:21:52;97125.34;;;3.06;86.50
77118;BME280;66072;50.238;19.228;2024-03-25T00:24:20;97121.13;;;3.06;86.65
77118;BME280;66072;50.238;19.228;2024-03-25T00:26:47;97119.46;;;3.05;86.98
77118;BME280;66072;50.238;19.228;2024-03-25T00:29:14;97122.84;;;3.05;87.13
77118;BME280;66072;50.238;19.228;2024-03-25T00:31:42;97125.55;;;3.05;87.29
77118;BME280;66072;50.238;19.228;2024-03-25T00:34:09;97121.77;;;3.03;87.54
77118;BME280;66072;50.238;19.228;2024-03-25T00:36:37;97121.84;;;3.01;88.20
77118;BME280;66072;50.238;19.228;2024-03-25T00:39:04;97120.73;;;2.98;88.11
77118;BME280;66072;50.238;19.228;2024-03-25T00:41:32;97118.63;;;2.96;87.85
77118;BME280;66072;50.238;19.228;2024-03-25T00:43:59;97118.33;;;2.95;88.41
77118;BME280;66072;50.238;19.228;2024-03-25T00:46:26;97116.77;;;2.96;88.34
77118;BME280;66072;50.238;19.228;2024-03-25T00:48:54;97116.02;;;2.98;88.76
77118;BME280;66072;50.238;19.228;2024-03-25T00:51:21;97115.42;;;3.01;88.46
77118;BME280;66072;50.238;19.228;2024-03-25T00:53:49;97114.23;;;3.01;88.28
77118;BME280;66072;50.238;19.228;2024-03-25T00:56:16;97117.73;;;3.03;88.86
77118;BME280;66072;50.238;19.228;2024-03-25T00:58:44;97118.84;;;3.04;88.90
77118;BME280;66072;50.238;19.228;2024-03-25T01:01:11;97117.27;;;3.05;89.07
77118;BME280;66072;50.238;19.228;2024-03-25T01:03:39;97114.52;;;3.06;89.09
77118;BME280;66072;50.238;19.228;2024-03-25T01:06:06;97113.33;;;3.07;89.11
77118;BME280;66072;50.238;19.228;2024-03-25T01:08:34;97111.13;;;3.07;89.39
77118;BME280;66072;50.238;19.228;2024-03-25T01:11:01;97110.45;;;3.07;89.59
77118;BME280;66072;50.238;19.228;2024-03-25T01:13:29;97109.25;;;3.08;89.48
77118;BME280;66072;50.238;19.228;2024-03-25T01:15:56;97107.09;;;3.06;89.31
77118;BME280;66072;50.238;19.228;2024-03-25T01:18:24;97106.80;;;3.05;89.60
77118;BME280;66072;50.238;19.228;2024-03-25T01:20:51;97107.02;;;3.04;89.95
77118;BME280;66072;50.238;19.228;2024-03-25T01:23:18;97106.12;;;3.01;89.85
77118;BME280;66072;50.238;19.228;2024-03-25T01:25:46;97108.31;;;2.96;90.04
77118;BME280;66072;50.238;19.228;2024-03-25T01:28:13;97104.89;;;2.93;90.24
77118;BME280;66072;50.238;19.228;2024-03-25T01:30:44;97104.08;;;2.88;89.80
77118;BME280;66072;50.238;19.228;2024-03-25T01:33:11;97105.36;;;2.81;90.01
77118;BME280;66072;50.238;19.228;2024-03-25T01:35:39;97103.24;;;2.74;90.30
77118;BME280;66072;50.238;19.228;2024-03-25T01:38:06;97102.45;;;2.68;90.35
77118;BME280;66072;50.238;19.228;2024-03-25T01:40:34;97100.25;;;2.63;90.75
77118;BME280;66072;50.238;19.228;2024-03-25T01:43:03;97095.20;;;2.59;90.57
77118;BME280;66072;50.238;19.228;2024-03-25T01:45:33;97095.10;;;2.57;90.94
77118;BME280;66072;50.238;19.228;2024-03-25T01:48:07;97092.13;;;2.55;90.76
77118;BME280;66072;50.238;19.228;2024-03-25T01:50:43;97092.78;;;2.56;91.07
77118;BME280;66072;50.238;19.228;2024-03-25T01:53:12;97091.91;;;2.56;91.15
77118;BME280;66072;50.238;19.228;2024-03-25T01:55:42;97087.83;;;2.57;91.38
77118;BME280;66072;50.238;19.228;2024-03-25T01:58:09;97087.63;;;2.58;91.51
77118;BME280;66072;50.238;19.228;2024-03-25T02:00:38;97086.06;;;2.60;91.24
77118;BME280;66072;50.238;19.228;2024-03-25T02:03:05;97086.58;;;2.59;91.52
77118;BME280;66072;50.238;19.228;2024-03-25T02:05:34;97090.85;;;2.58;91.56
77118;BME280;66072;50.238;19.228;2024-03-25T02:08:03;97093.11;;;2.56;91.86
77118;BME280;66072;50.238;19.228;2024-03-25T02:10:31;97089.06;;;2.52;91.66
77118;BME280;66072;50.238;19.228;2024-03-25T02:12:59;97089.42;;;2.46;91.74
77118;BME280;66072;50.238;19.228;2024-03-25T02:15:27;97090.14;;;2.41;91.93
77118;BME280;66072;50.238;19.228;2024-03-25T02:17:54;97086.95;;;2.36;92.61
77118;BME280;66072;50.238;19.228;2024-03-25T02:20:22;97091.11;;;2.32;92.93
77118;BME280;66072;50.238;19.228;2024-03-25T02:22:49;97090.09;;;2.28;92.52
77118;BME280;66072;50.238;19.228;2024-03-25T02:25:17;97092.69;;;2.22;92.52
77118;BME280;66072;50.238;19.228;2024-03-25T02:27:44;97093.00;;;2.17;93.19
77118;BME280;66072;50.238;19.228;2024-03-25T02:30:13;97094.30;;;2.13;93.63
77118;BME280;66072;50.238;19.228;2024-03-25T02:32:40;97098.14;;;2.10;93.41
77118;BME280;66072;50.238;19.228;2024-03-25T02:35:13;97093.55;;;2.06;93.75
77118;BME280;66072;50.238;19.228;2024-03-25T02:37:42;97098.33;;;2.05;94.55
77118;BME280;66072;50.238;19.228;2024-03-25T02:40:10;97099.35;;;2.04;94.37
77118;BME280;66072;50.238;19.228;2024-03-25T02:42:38;97102.61;;;2.02;93.80
77118;BME280;66072;50.238;19.228;2024-03-25T02:45:08;97100.14;;;2.00;93.98
77118;BME280;66072;50.238;19.228;2024-03-25T02:47:35;97101.16;;;2.00;94.44
77118;BME280;66072;50.238;19.228;2024-03-25T02:50:03;97102.61;;;2.02;94.41
77118;BME280;66072;50.238;19.228;2024-03-25T02:52:31;97106.48;;;2.08;94.55
77118;BME280;66072;50.238;19.228;2024-03-25T02:54:58;97102.74;;;2.13;94.53
77118;BME280;66072;50.238;19.228;2024-03-25T02:57:25;97101.36;;;2.19;94.48
77118;BME280;66072;50.238;19.228;2024-03-25T02:59:53;97102.19;;;2.24;94.18
77118;BME280;66072;50.238;19.228;2024-03-25T03:02:20;97100.67;;;2.29;94.56
77118;BME280;66072;50.238;19.228;2024-03-25T03:04:48;97097.98;;;2.34;93.73
77118;BME280;66072;50.238;19.228;2024-03-25T03:07:15;97101.27;;;2.36;93.36
77118;BME280;66072;50.238;19.228;2024-03-25T03:09:43;97099.19;;;2.37;93.47
77118;BME280;66072;50.238;19.228;2024-03-25T03:12:10;97097.77;;;2.39;93.34
77118;BME280;66072;50.238;19.228;2024-03-25T03:14:38;97095.85;;;2.41;93.22
77118;BME280;66072;50.238;19.228;2024-03-25T03:17:05;97095.50;;;2.41;93.01
77118;BME280;66072;50.238;19.228;2024-03-25T03:19:32;97100.86;;;2.42;92.95
77118;BME280;66072;50.238;19.228;2024-03-25T03:22:00;97103.34;;;2.44;92.89
77118;BME280;66072;50.238;19.228;2024-03-25T03:24:27;97101.30;;;2.44;92.87
77118;BME280;66072;50.238;19.228;2024-03-25T03:26:54;97103.96;;;2.46;92.81
77118;BME280;66072;50.238;19.228;2024-03-25T03:29:22;97108.33;;;2.47;92.63
77118;BME280;66072;50.238;19.228;2024-03-25T03:31:49;97105.43;;;2.47;92.65
77118;BME280;66072;50.238;19.228;2024-03-25T03:34:17;97102.02;;;2.48;92.40
77118;BME280;66072;50.238;19.228;2024-03-25T03:36:44;97103.86;;;2.49;92.51
77118;BME280;66072;50.238;19.228;2024-03-25T03:39:12;97098.11;;;2.49;92.37
77118;BME280;66072;50.238;19.228;2024-03-25T03:41:39;97095.04;;;2.49;92.49
77118;BME280;66072;50.238;19.228;2024-03-25T03:44:06;97093.14;;;2.50;92.43
77118;BME280;66072;50.238;19.228;2024-03-25T03:46:34;97091.95;;;2.51;92.43
77118;BME280;66072;50.238;19.228;2024-03-25T03:49:01;97094.45;;;2.52;92.25
77118;BME280;66072;50.238;19.228;2024-03-25T03:51:29;97098.00;;;2.52;92.58
77118;BME280;66072;50.238;19.228;2024-03-25T03:53:56;97096.13;;;2.52;92.37
77118;BME280;66072;50.238;19.228;2024-03-25T03:56:24;97093.65;;;2.50;92.44
77118;BME280;66072;50.238;19.228;2024-03-25T03:58:51;97095.52;;;2.50;92.34
77118;BME280;66072;50.238;19.228;2024-03-25T04:01:19;97097.05;;;2.50;92.59
77118;BME280;66072;50.238;19.228;2024-03-25T04:03:46;97098.89;;;2.50;92.38
77118;BME280;66072;50.238;19.228;2024-03-25T04:06:14;97098.55;;;2.50;92.63
77118;BME280;66072;50.238;19.228;2024-03-25T04:08:41;97098.87;;;2.51;92.74
77118;BME280;66072;50.238;19.228;2024-03-25T04:11:10;97102.05;;;2.52;92.48
77118;BME280;66072;50.238;19.228;2024-03-25T04:13:37;97103.23;;;2.52;92.49
77118;BME280;66072;50.238;19.228;2024-03-25T04:16:05;97101.45;;;2.54;92.33
77118;BME280;66072;50.238;19.228;2024-03-25T04:18:33;97102.58;;;2.55;92.39
77118;BME280;66072;50.238;19.228;2024-03-25T04:21:01;97098.46;;;2.57;92.59
77118;BME280;66072;50.238;19.228;2024-03-25T04:23:28;97098.20;;;2.60;93.05
77118;BME280;66072;50.238;19.228;2024-03-25T04:26:00;97094.55;;;2.62;93.13
77118;BME280;66072;50.238;19.228;2024-03-25T04:28:28;97099.74;;;2.63;92.87
77118;BME280;66072;50.238;19.228;2024-03-25T04:30:55;97100.59;;;2.64;92.71
77118;BME280;66072;50.238;19.228;2024-03-25T04:33:23;97106.08;;;2.66;92.59
77118;BME280;66072;50.238;19.228;2024-03-25T04:35:50;97103.63;;;2.68;92.80
77118;BME280;66072;50.238;19.228;2024-03-25T04:38:17;97108.34;;;2.74;92.67
77118;BME280;66072;50.238;19.228;2024-03-25T04:40:45;97110.38;;;2.78;92.63
77118;BME280;66072;50.238;19.228;2024-03-25T04:43:12;97109.02;;;2.82;92.70
77118;BME280;66072;50.238;19.228;2024-03-25T04:45:40;97109.16;;;2.87;92.95
77118;BME280;66072;50.238;19.228;2024-03-25T04:48:07;97112.86;;;2.92;92.83
77118;BME280;66072;50.238;19.228;2024-03-25T04:50:34;97113.05;;;2.96;92.68
77118;BME280;66072;50.238;19.228;2024-03-25T04:53:02;97110.91;;;2.99;93.04
77118;BME280;66072;50.238;19.228;2024-03-25T04:55:30;97107.84;;;3.00;93.52
77118;BME280;66072;50.238;19.228;2024-03-25T04:57:57;97113.04;;;3.01;93.64
77118;BME280;66072;50.238;19.228;2024-03-25T05:00:24;97109.83;;;3.02;93.88
77118;BME280;66072;50.238;19.228;2024-03-25T05:02:52;97109.31;;;3.02;93.95
77118;BME280;66072;50.238;19.228;2024-03-25T05:05:19;97109.19;;;3.00;94.69
77118;BME280;66072;50.238;19.228;2024-03-25T05:07:47;97116.27;;;3.00;95.01
77118;BME280;66072;50.238;19.228;2024-03-25T05:10:14;97117.11;;;3.01;95.35
77118;BME280;66072;50.238;19.228;2024-03-25T05:12:41;97119.84;;;3.00;95.66
77118;BME280;66072;50.238;19.228;2024-03-25T05:15:09;97124.57;;;3.00;95.85
77118;BME280;66072;50.238;19.228;2024-03-25T05:17:36;97123.73;;;2.99;95.93
77118;BME280;66072;50.238;19.228;2024-03-25T05:20:04;97130.30;;;2.96;96.48
77118;BME280;66072;50.238;19.228;2024-03-25T05:22:32;97128.65;;;2.90;96.40
77118;BME280;66072;50.238;19.228;2024-03-25T05:24:59;97129.86;;;2.85;96.99
77118;BME280;66072;50.238;19.228;2024-03-25T05:27:26;97132.67;;;2.82;97.36
77118;BME280;66072;50.238;19.228;2024-03-25T05:29:54;97130.77;;;2.79;97.39
77118;BME280;66072;50.238;19.228;2024-03-25T05:32:21;97128.80;;;2.77;98.17
77118;BME280;66072;50.238;19.228;2024-03-25T05:34:49;97133.75;;;2.76;98.49
77118;BME280;66072;50.238;19.228;2024-03-25T05:37:16;97135.95;;;2.76;98.29
77118;BME280;66072;50.238;19.228;2024-03-25T05:39:44;97137.41;;;2.77;98.22
77118;BME280;66072;50.238;19.228;2024-03-25T05:42:11;97136.77;;;2.81;98.30
77118;BME280;66072;50.238;19.228;2024-03-25T05:44:39;97136.77;;;2.85;98.22
77118;BME280;66072;50.238;19.228;2024-03-25T05:47:06;97139.43;;;2.90;98.52
77118;BME280;66072;50.238;19.228;2024-03-25T05:49:34;97140.92;;;2.96;98.78
77118;BME280;66072;50.238;19.228;2024-03-25T05:52:01;97139.02;;;3.02;99.13
77118;BME280;66072;50.238;19.228;2024-03-25T05:54:29;97142.48;;;3.09;99.03
77118;BME280;66072;50.238;19.228;2024-03-25T05:56:56;97140.52;;;3.20;99.02
77118;BME280;66072;50.238;19.228;2024-03-25T05:59:23;97141.17;;;3.34;98.99
77118;BME280;66072;50.238;19.228;2024-03-25T06:01:51;97146.25;;;3.47;98.74
77118;BME280;66072;50.238;19.228;2024-03-25T06:04:18;97145.92;;;3.55;98.71
77118;BME280;66072;50.238;19.228;2024-03-25T06:06:45;97148.45;;;3.59;98.60
77118;BME280;66072;50.238;19.228;2024-03-25T06:09:13;97145.17;;;3.61;98.64
77118;BME280;66072;50.238;19.228;2024-03-25T06:11:40;97150.81;;;3.63;98.50
77118;BME280;66072;50.238;19.228;2024-03-25T06:14:08;97152.20;;;3.66;98.73
77118;BME280;66072;50.238;19.228;2024-03-25T06:16:35;97157.22;;;3.68;98.68
77118;BME280;66072;50.238;19.228;2024-03-25T06:19:03;97156.83;;;3.74;98.58
77118;BME280;66072;50.238;19.228;2024-03-25T06:21:30;97156.17;;;3.82;98.90
77118;BME280;66072;50.238;19.228;2024-03-25T06:23:57;97156.91;;;3.92;98.74
77118;BME280;66072;50.238;19.228;2024-03-25T06:26:25;97161.77;;;4.01;98.44
77118;BME280;66072;50.238;19.228;2024-03-25T06:28:52;97162.89;;;4.07;98.22
77118;BME280;66072;50.238;19.228;2024-03-25T06:31:20;97159.88;;;4.11;98.33
77118;BME280;66072;50.238;19.228;2024-03-25T06:33:47;97161.67;;;4.13;98.14
77118;BME280;66072;50.238;19.228;2024-03-25T06:36:15;97163.32;;;4.14;97.68
77118;BME280;66072;50.238;19.228;2024-03-25T06:38:42;97163.05;;;4.20;97.31
77118;BME280;66072;50.238;19.228;2024-03-25T06:41:10;97168.66;;;4.31;97.21
77118;BME280;66072;50.238;19.228;2024-03-25T06:43:38;97167.07;;;4.41;96.82
77118;BME280;66072;50.238;19.228;2024-03-25T06:46:06;97167.56;;;4.45;97.18
77118;BME280;66072;50.238;19.228;2024-03-25T06:48:34;97170.11;;;4.45;96.76
77118;BME280;66072;50.238;19.228;2024-03-25T06:51:02;97168.98;;;4.44;96.52
77118;BME280;66072;50.238;19.228;2024-03-25T06:53:30;97174.52;;;4.41;96.37
77118;BME280;66072;50.238;19.228;2024-03-25T06:56:00;97176.08;;;4.40;96.43
77118;BME280;66072;50.238;19.228;2024-03-25T06:58:28;97179.38;;;4.39;96.56
77118;BME280;66072;50.238;19.228;2024-03-25T07:00:56;97183.70;;;4.40;96.60
77118;BME280;66072;50.238;19.228;2024-03-25T07:03:24;97188.34;;;4.43;96.63
77118;BME280;66072;50.238;19.228;2024-03-25T07:05:52;97187.59;;;4.44;96.48
77118;BME280;66072;50.238;19.228;2024-03-25T07:08:19;97183.39;;;4.47;96.41
77118;BME280;66072;50.238;19.228;2024-03-25T07:10:47;97180.80;;;4.52;96.22
77118;BME280;66072;50.238;19.228;2024-03-25T07:13:14;97182.99;;;4.60;95.43
77118;BME280;66072;50.238;19.228;2024-03-25T07:15:43;97186.18;;;4.80;95.85
77118;BME280;66072;50.238;19.228;2024-03-25T07:18:11;97184.52;;;5.10;94.41
77118;BME280;66072;50.238;19.228;2024-03-25T07:20:39;97193.11;;;5.33;93.35
77118;BME280;66072;50.238;19.228;2024-03-25T07:23:07;97192.21;;;5.49;92.51
77118;BME280;66072;50.238;19.228;2024-03-25T07:25:35;97196.23;;;5.61;91.72
77118;BME280;66072;50.238;19.228;2024-03-25T07:28:03;97197.21;;;5.69;91.86
77118;BME280;66072;50.238;19.228;2024-03-25T07:30:31;97199.48;;;5.78;91.27
77118;BME280;66072;50.238;19.228;2024-03-25T07:32:59;97198.69;;;5.88;90.34
77118;BME280;66072;50.238;19.228;2024-03-25T07:35:26;97203.66;;;5.98;89.89
77118;BME280;66072;50.238;19.228;2024-03-25T07:37:54;97205.65;;;5.99;88.43
77118;BME280;66072;50.238;19.228;2024-03-25T07:40:21;97204.73;;;5.97;88.79
77118;BME280;66072;50.238;19.228;2024-03-25T07:42:49;97205.57;;;5.94;88.18
77118;BME280;66072;50.238;19.228;2024-03-25T07:45:16;97202.89;;;5.89;88.27
77118;BME280;66072;50.238;19.228;2024-03-25T07:47:44;97207.70;;;5.87;88.86
77118;BME280;66072;50.238;19.228;2024-03-25T07:50:12;97209.65;;;5.82;88.71
77118;BME280;66072;50.238;19.228;2024-03-25T07:52:39;97214.62;;;5.74;88.17
77118;BME280;66072;50.238;19.228;2024-03-25T07:55:07;97212.52;;;5.76;88.92
77118;BME280;66072;50.238;19.228;2024-03-25T07:57:35;97217.09;;;5.83;88.51
77118;BME280;66072;50.238;19.228;2024-03-25T08:00:03;97220.80;;;5.83;87.86
77118;BME280;66072;50.238;19.228;2024-03-25T08:02:31;97220.02;;;5.85;87.29
77118;BME280;66072;50.238;19.228;2024-03-25T08:04:58;97223.88;;;5.79;87.00
77118;BME280;66072;50.238;19.228;2024-03-25T08:07:26;97224.86;;;5.73;87.02
77118;BME280;66072;50.238;19.228;2024-03-25T08:09:53;97225.14;;;5.70;87.47
77118;BME280;66072;50.238;19.228;2024-03-25T08:12:21;97228.14;;;5.68;87.86
77118;BME280;66072;50.238;19.228;2024-03-25T08:14:48;97228.63;;;5.61;88.14
77118;BME280;66072;50.238;19.228;2024-03-25T08:17:16;97230.42;;;5.59;89.04
77118;BME280;66072;50.238;19.228;2024-03-25T08:19:43;97229.98;;;5.64;89.12
77118;BME280;66072;50.238;19.228;2024-03-25T08:22:11;97236.97;;;5.68;89.05
77118;BME280;66072;50.238;19.228;2024-03-25T08:24:38;97242.13;;;5.66;89.26
77118;BME280;66072;50.238;19.228;2024-03-25T08:27:05;97237.87;;;5.56;88.93
77118;BME280;66072;50.238;19.228;2024-03-25T08:29:33;97243.02;;;5.43;89.53
77118;BME280;66072;50.238;19.228;2024-03-25T08:32:00;97244.63;;;5.37;90.38
77118;BME280;66072;50.238;19.228;2024-03-25T08:34:28;97245.77;;;5.28;90.49
77118;BME280;66072;50.238;19.228;2024-03-25T08:36:56;97248.66;;;5.16;91.34
77118;BME280;66072;50.238;19.228;2024-03-25T08:39:23;97252.27;;;5.03;92.77
77118;BME280;66072;50.238;19.228;2024-03-25T08:41:51;97254.33;;;4.99;93.11
77118;BME280;66072;50.238;19.228;2024-03-25T08:44:18;97261.60;;;4.95;93.29
77118;BME280;66072;50.238;19.228;2024-03-25T08:46:46;97260.86;;;4.96;93.80
77118;BME280;66072;50.238;19.228;2024-03-25T08:49:13;97262.51;;;5.01;93.98
77118;BME280;66072;50.238;19.228;2024-03-25T08:51:41;97271.64;;;5.10;94.21
77118;BME280;66072;50.238;19.228;2024-03-25T08:54:08;97272.94;;;5.26;94.08
77118;BME280;66072;50.238;19.228;2024-03-25T08:56:36;97274.18;;;5.59;93.22
77118;BME280;66072;50.238;19.228;2024-03-25T08:59:03;97274.67;;;5.89;91.90
77118;BME280;66072;50.238;19.228;2024-03-25T09:01:31;97281.55;;;6.09;91.23
77118;BME280;66072;50.238;19.228;2024-03-25T09:03:58;97275.84;;;6.29;90.79
77118;BME280;66072;50.238;19.228;2024-03-25T09:06:27;97280.67;;;6.52;89.66
77118;BME280;66072;50.238;19.228;2024-03-25T09:08:55;97282.09;;;6.84;88.96
77118;BME280;66072;50.238;19.228;2024-03-25T09:11:23;97281.58;;;7.08;87.46
77118;BME280;66072;50.238;19.228;2024-03-25T09:13:51;97276.86;;;7.26;85.91
77118;BME280;66072;50.238;19.228;2024-03-25T09:16:18;97280.95;;;7.33;85.81
77118;BME280;66072;50.238;19.228;2024-03-25T09:18:48;97279.02;;;7.31;84.84
77118;BME280;66072;50.238;19.228;2024-03-25T09:21:22;97279.02;;;7.37;82.32
77118;BME280;66072;50.238;19.228;2024-03-25T09:23:50;97272.67;;;7.51;81.34
77118;BME280;66072;50.238;19.228;2024-03-25T09:26:17;97269.55;;;7.65;81.30
77118;BME280;66072;50.238;19.228;2024-03-25T09:28:45;97272.80;;;7.74;80.39
77118;BME280;66072;50.238;19.228;2024-03-25T09:31:12;97271.08;;;7.93;80.30
77118;BME280;66072;50.238;19.228;2024-03-25T09:33:40;97270.05;;;7.99;78.93
77118;BME280;66072;50.238;19.228;2024-03-25T09:36:07;97270.75;;;7.90;79.07
77118;BME280;66072;50.238;19.228;2024-03-25T09:38:35;97267.28;;;7.88;79.32
77118;BME280;66072;50.238;19.228;2024-03-25T09:41:02;97266.70;;;7.76;78.88
77118;BME280;66072;50.238;19.228;2024-03-25T09:43:43;97266.08;;;7.56;78.93
77118;BME280;66072;50.238;19.228;2024-03-25T09:46:11;97269.23;;;7.49;79.04
77118;BME280;66072;50.238;19.228;2024-03-25T09:48:39;97273.14;;;7.45;78.57
77118;BME280;66072;50.238;19.228;2024-03-25T09:51:12;97268.31;;;7.53;78.68
77118;BME280;66072;50.238;19.228;2024-03-25T09:53:39;97265.33;;;7.77;79.52
77118;BME280;66072;50.238;19.228;2024-03-25T09:56:07;97267.18;;;7.99;78.70
77118;BME280;66072;50.238;19.228;2024-03-25T09:58:36;97267.91;;;8.16;77.69
77118;BME280;66072;50.238;19.228;2024-03-25T10:01:06;97265.29;;;8.11;74.34
77118;BME280;66072;50.238;19.228;2024-03-25T10:03:33;97269.41;;;8.17;74.58
77118;BME280;66072;50.238;19.228;2024-03-25T10:06:01;97268.86;;;8.21;75.11
77118;BME280;66072;50.238;19.228;2024-03-25T10:08:28;97270.76;;;8.11;75.32
77118;BME280;66072;50.238;19.228;2024-03-25T10:10:56;97272.71;;;8.00;74.82
77118;BME280;66072;50.238;19.228;2024-03-25T10:13:24;97274.07;;;8.07;74.95
77118;BME280;66072;50.238;19.228;2024-03-25T10:15:51;97272.42;;;8.12;75.15
77118;BME280;66072;50.238;19.228;2024-03-25T10:18:18;97277.15;;;7.91;74.67
77118;BME280;66072;50.238;19.228;2024-03-25T10:20:53;97279.83;;;7.89;77.16
77118;BME280;66072;50.238;19.228;2024-03-25T10:23:22;97283.69;;;8.05;76.43
77118;BME280;66072;50.238;19.228;2024-03-25T10:25:52;97286.46;;;8.17;75.27
77118;BME280;66072;50.238;19.228;2024-03-25T10:28:20;97289.00;;;8.35;73.44
77118;BME280;66072;50.238;19.228;2024-03-25T10:30:47;97303.53;;;8.44;73.27
77118;BME280;66072;50.238;19.228;2024-03-25T10:33:15;97298.77;;;8.44;72.61
77118;BME280;66072;50.238;19.228;2024-03-25T10:35:44;97301.33;;;8.38;72.37
77118;BME280;66072;50.238;19.228;2024-03-25T10:38:14;97303.41;;;8.24;71.48
77118;BME280;66072;50.238;19.228;2024-03-25T10:40:45;97302.83;;;8.53;69.74
77118;BME280;66072;50.238;19.228;2024-03-25T10:43:15;97299.13;;;9.14;67.33
77118;BME280;66072;50.238;19.228;2024-03-25T10:45:46;97297.79;;;9.36;66.98
77118;BME280;66072;50.238;19.228;2024-03-25T10:50:47;97294.21;;;9.56;65.91
77118;BME280;66072;50.238;19.228;2024-03-25T10:53:18;97290.98;;;9.38;66.30
77118;BME280;66072;50.238;19.228;2024-03-25T10:55:47;97292.58;;;9.35;66.26
77118;BME280;66072;50.238;19.228;2024-03-25T10:58:16;97295.23;;;9.64;64.56
77118;BME280;66072;50.238;19.228;2024-03-25T11:00:43;97297.15;;;10.39;64.26
77118;BME280;66072;50.238;19.228;2024-03-25T11:03:11;97299.65;;;10.90;61.50
77118;BME280;66072;50.238;19.228;2024-03-25T11:05:39;97297.46;;;10.87;60.59
77118;BME280;66072;50.238;19.228;2024-03-25T11:08:13;97293.80;;;10.41;59.77
77118;BME280;66072;50.238;19.228;2024-03-25T11:10:46;97290.75;;;9.87;61.60
77118;BME280;66072;50.238;19.228;2024-03-25T11:13:17;97297.80;;;9.33;63.35
77118;BME280;66072;50.238;19.228;2024-03-25T11:15:47;97300.93;;;8.86;66.08
77118;BME280;66072;50.238;19.228;2024-03-25T11:18:18;97312.44;;;8.08;70.68
77118;BME280;66072;50.238;19.228;2024-03-25T11:20:59;97330.25;;;7.33;74.43
77118;BME280;66072;50.238;19.228;2024-03-25T11:23:35;97326.99;;;6.84;76.25
77118;BME280;66072;50.238;19.228;2024-03-25T11:26:03;97327.74;;;6.75;77.28
77118;BME280;66072;50.238;19.228;2024-03-25T11:28:30;97327.91;;;6.93;78.02
77118;BME280;66072;50.238;19.228;2024-03-25T11:30:58;97332.71;;;6.95;80.21
77118;BME280;66072;50.238;19.228;2024-03-25T11:33:25;97351.80;;;6.66;81.94
77118;BME280;66072;50.238;19.228;2024-03-25T11:35:53;97354.48;;;6.35;86.07
77118;BME280;66072;50.238;19.228;2024-03-25T11:38:21;97352.55;;;6.37;86.09
77118;BME280;66072;50.238;19.228;2024-03-25T11:40:49;97344.10;;;6.74;83.96
77118;BME280;66072;50.238;19.228;2024-03-25T11:43:19;97342.66;;;7.56;83.22
77118;BME280;66072;50.238;19.228;2024-03-25T11:45:48;97330.44;;;8.19;80.78
77118;BME280;66072;50.238;19.228;2024-03-25T11:48:16;97326.29;;;8.45;78.69
77118;BME280;66072;50.238;19.228;2024-03-25T11:50:47;97327.39;;;8.68;78.42
77118;BME280;66072;50.238;19.228;2024-03-25T11:53:14;97328.30;;;8.96;76.89
77118;BME280;66072;50.238;19.228;2024-03-25T11:55:46;97329.48;;;9.34;76.66
77118;BME280;66072;50.238;19.228;2024-03-25T11:58:14;97323.54;;;10.25;74.68
77118;BME280;66072;50.238;19.228;2024-03-25T12:00:46;97323.52;;;11.22;71.44
77118;BME280;66072;50.238;19.228;2024-03-25T12:03:15;97319.29;;;11.59;68.51
77118;BME280;66072;50.238;19.228;2024-03-25T12:05:43;97320.77;;;11.57;67.18
77118;BME280;66072;50.238;19.228;2024-03-25T12:08:10;97322.41;;;11.00;69.25
77118;BME280;66072;50.238;19.228;2024-03-25T12:10:38;97315.86;;;10.67;69.01
77118;BME280;66072;50.238;19.228;2024-03-25T12:13:07;97317.24;;;10.80;68.74
77118;BME280;66072;50.238;19.228;2024-03-25T12:15:35;97318.67;;;10.76;67.14
77118;BME280;66072;50.238;19.228;2024-03-25T12:18:06;97315.59;;;11.10;66.83
77118;BME280;66072;50.238;19.228;2024-03-25T12:20:34;97309.14;;;11.64;65.08
77118;BME280;66072;50.238;19.228;2024-03-25T12:23:02;97309.66;;;12.11;64.59
77118;BME280;66072;50.238;19.228;2024-03-25T12:25:29;97306.36;;;12.00;65.36
77118;BME280;66072;50.238;19.228;2024-03-25T12:27:57;97314.83;;;11.44;63.92
77118;BME280;66072;50.238;19.228;2024-03-25T12:30:26;97334.72;;;10.50;65.68
77118;BME280;66072;50.238;19.228;2024-03-25T12:32:54;97349.11;;;9.42;67.00
77118;BME280;66072;50.238;19.228;2024-03-25T12:35:21;97360.58;;;8.38;70.61
77118;BME280;66072;50.238;19.228;2024-03-25T12:37:49;97365.44;;;7.53;74.71
77118;BME280;66072;50.238;19.228;2024-03-25T12:40:27;97367.05;;;6.88;78.30
77118;BME280;66072;50.238;19.228;2024-03-25T12:42:55;97364.41;;;6.34;81.17
77118;BME280;66072;50.238;19.228;2024-03-25T12:45:23;97354.80;;;6.07;83.85
77118;BME280;66072;50.238;19.228;2024-03-25T12:47:51;97345.92;;;6.23;84.17
77118;BME280;66072;50.238;19.228;2024-03-25T12:50:18;97337.34;;;7.66;81.60
77118;BME280;66072;50.238;19.228;2024-03-25T12:52:46;97330.80;;;10.04;73.90
77118;BME280;66072;50.238;19.228;2024-03-25T12:55:13;97331.89;;;11.79;66.22
77118;BME280;66072;50.238;19.228;2024-03-25T12:57:41;97329.88;;;13.35;63.62
77118;BME280;66072;50.238;19.228;2024-03-25T13:00:09;97332.46;;;14.81;59.72
77118;BME280;66072;50.238;19.228;2024-03-25T13:02:36;97334.45;;;15.77;53.10
77118;BME280;66072;50.238;19.228;2024-03-25T13:05:06;97335.80;;;16.43;50.38
77118;BME280;66072;50.238;19.228;2024-03-25T13:07:34;97334.23;;;17.23;48.35